createdAt,value
2023-05-20T00:01:52.253Z,9.4425
2023-05-20T00:02:54.454Z,9.4289
2023-05-20T00:03:56.891Z,9.4479
2023-05-20T00:04:58.689Z,9.4569
2023-05-20T00:06:00.234Z,9.4196
2023-05-20T00:07:02.570Z,9.3808
2023-05-20T00:08:04.840Z,9.3871
2023-05-20T00:09:07.276Z,9.3746
2023-05-20T00:10:08.705Z,9.3802
2023-05-20T00:11:11.047Z,9.3663
2023-05-20T00:12:12.582Z,9.4106
2023-05-20T00:13:14.870Z,9.4297
2023-05-20T00:14:16.339Z,9.3905
2023-05-20T00:15:17.937Z,9.3845
2023-05-20T00:16:19.583Z,9.3723
2023-05-20T00:17:22.395Z,9.3568
2023-05-20T00:18:24.520Z,9.3719
2023-05-20T00:19:26.600Z,9.3568
2023-05-20T00:20:28.843Z,9.3505
2023-05-20T00:21:31.011Z,9.3056
2023-05-20T00:22:32.456Z,9.2997
2023-05-20T00:23:33.906Z,9.2835
2023-05-20T00:24:36.155Z,9.2544
2023-05-20T00:25:38.499Z,9.2494
2023-05-20T00:26:40.757Z,9.2360
2023-05-20T00:27:42.835Z,9.1954
2023-05-20T00:28:45.007Z,9.1368
2023-05-20T00:29:47.185Z,9.1436
2023-05-20T00:30:47.339Z,9.1624
2023-05-20T00:31:49.628Z,9.1658
2023-05-20T00:32:52.088Z,9.1935
2023-05-20T00:33:52.275Z,9.1887
2023-05-20T00:34:53.706Z,9.1641
2023-05-20T00:35:55.288Z,9.0847
2023-05-20T00:36:56.916Z,9.0919
2023-05-20T00:37:58.381Z,9.0931
2023-05-20T00:38:59.803Z,9.0960
2023-05-20T00:40:02.050Z,8.9808
2023-05-20T00:41:04.180Z,9.0129
2023-05-20T00:42:05.593Z,8.8808
2023-05-20T00:44:09.090Z,8.7240
2023-05-20T00:45:10.620Z,8.5859
2023-05-20T00:47:13.313Z,8.4383
2023-05-20T00:48:14.738Z,8.4022
2023-05-20T00:49:16.268Z,8.4977
2023-05-20T00:51:18.974Z,8.1974
2023-05-20T00:52:20.447Z,8.0586
2023-05-20T00:53:22.086Z,8.0139
2023-05-20T00:54:24.177Z,8.1133
2023-05-20T00:55:26.491Z,8.0315
2023-05-20T00:56:28.561Z,8.0933
2023-05-20T00:57:30.807Z,8.2062
2023-05-20T00:58:32.223Z,8.1467
2023-05-20T00:59:33.831Z,8.0798
2023-05-20T01:00:35.884Z,7.7015
2023-05-20T01:01:38.130Z,7.6716
2023-05-20T01:02:39.828Z,7.5369
2023-05-20T01:04:43.855Z,7.3539
2023-05-20T01:05:45.440Z,7.2898
2023-05-20T01:07:49.510Z,7.4200
2023-05-20T01:08:51.115Z,7.3128
2023-05-20T01:09:53.293Z,7.3336
2023-05-20T01:10:55.975Z,7.3199
2023-05-20T01:11:57.592Z,7.1310
2023-05-20T01:12:59.602Z,7.1021
2023-05-20T01:16:02.764Z,6.8271
2023-05-20T01:19:07.223Z,6.8234
2023-05-20T01:20:08.697Z,7.1952
2023-05-20T01:21:10.456Z,7.5831
2023-05-20T01:22:12.721Z,7.4865
2023-05-20T01:23:14.211Z,7.5311
2023-05-20T01:24:17.077Z,7.6669
2023-05-20T01:25:18.781Z,7.5965
2023-05-20T01:27:23.615Z,7.6584
2023-05-20T01:28:23.704Z,7.5851
2023-05-20T01:29:25.329Z,7.6073
2023-05-20T01:30:28.105Z,7.6023
2023-05-20T01:31:30.655Z,7.6548
2023-05-20T01:32:32.177Z,7.6667
2023-05-20T01:33:34.066Z,7.4695
2023-05-20T01:34:35.690Z,7.3803
2023-05-20T01:35:37.243Z,7.3253
2023-05-20T01:36:38.976Z,7.3394
2023-05-20T01:37:40.836Z,7.4825
2023-05-20T01:38:42.271Z,7.3275
2023-05-20T01:39:43.757Z,7.4920
2023-05-20T01:42:48.209Z,7.4102
2023-05-20T01:43:49.660Z,7.3477
2023-05-20T01:46:55.486Z,7.3620
2023-05-20T01:47:57.680Z,7.2923
2023-05-20T01:57:10.365Z,7.2570
2023-05-20T01:58:12.386Z,7.3684
2023-05-20T01:59:15.049Z,7.3971
2023-05-20T02:09:32.487Z,7.1408
2023-05-20T02:10:34.163Z,7.0561
2023-05-20T02:11:35.807Z,6.9025
2023-05-20T02:12:37.931Z,6.8884
2023-05-20T02:13:39.403Z,6.7130
2023-05-20T02:15:43.419Z,6.6023
2023-05-20T02:16:45.602Z,6.7743
2023-05-20T02:17:45.770Z,6.7246
2023-05-20T02:19:49.482Z,6.9595
2023-05-20T02:20:51.786Z,6.9692
2023-05-20T02:21:53.888Z,7.1817
2023-05-20T02:22:55.774Z,7.3014
2023-05-20T02:23:58.271Z,7.0846
2023-05-20T02:25:00.755Z,7.1519
2023-05-20T02:26:02.214Z,7.3960
2023-05-20T02:27:03.708Z,7.4607
2023-05-20T02:28:06.197Z,7.2546
2023-05-20T02:29:08.643Z,7.2359
2023-05-20T02:30:10.141Z,7.2248
2023-05-20T02:31:11.628Z,7.2545
2023-05-20T02:33:14.547Z,7.2370
2023-05-20T02:34:16.066Z,7.2183
2023-05-20T02:35:17.554Z,7.2734
2023-05-20T02:36:19.674Z,7.1942
2023-05-20T02:37:21.901Z,7.0673
2023-05-20T02:38:24.184Z,7.0281
2023-05-20T02:39:25.701Z,7.2007
2023-05-20T02:41:29.570Z,7.2598
2023-05-20T02:42:31.030Z,7.1736
2023-05-20T02:43:32.582Z,6.9801
2023-05-20T02:44:34.385Z,7.0794
2023-05-20T02:45:36.743Z,6.8687
2023-05-20T02:46:39.029Z,6.9093
2023-05-20T02:47:41.136Z,6.9270
2023-05-20T02:48:42.630Z,6.7653
2023-05-20T02:49:44.921Z,6.7862
2023-05-20T02:50:47.373Z,6.8268
2023-05-20T02:51:49.920Z,7.1031
2023-05-20T02:52:51.450Z,7.3533
2023-05-20T02:53:53.808Z,7.3698
2023-05-20T02:54:56.137Z,7.2545
2023-05-20T02:56:57.886Z,7.2504
2023-05-20T02:57:57.961Z,7.3390
2023-05-20T02:59:01.065Z,7.4303
2023-05-20T03:01:03.120Z,7.4671
2023-05-20T03:02:05.694Z,7.4752
2023-05-20T03:03:07.276Z,7.4512
2023-05-20T03:04:10.140Z,7.4749
2023-05-20T03:07:12.492Z,7.2495
2023-05-20T03:15:26.289Z,7.4567
2023-05-20T03:16:28.765Z,7.5687
2023-05-20T03:17:30.884Z,7.6118
2023-05-20T03:18:32.354Z,7.6329
2023-05-20T03:19:34.500Z,7.5761
2023-05-20T03:20:36.614Z,7.5971
2023-05-20T03:21:38.767Z,7.6293
2023-05-20T03:22:40.430Z,7.6430
2023-05-20T03:23:41.934Z,7.5351
2023-05-20T03:24:43.402Z,7.4757
2023-05-20T03:25:44.911Z,7.4653
2023-05-20T03:26:46.470Z,7.6171
2023-05-20T03:27:48.637Z,7.6978
2023-05-20T03:28:51.056Z,7.7056
2023-05-20T03:29:53.140Z,7.6381
2023-05-20T03:30:54.620Z,7.4649
2023-05-20T03:31:56.084Z,7.4238
2023-05-20T03:32:57.577Z,7.4363
2023-05-20T03:33:59.068Z,7.5172
2023-05-20T03:35:00.524Z,7.2081
2023-05-20T03:37:03.225Z,7.3885
2023-05-20T03:38:04.678Z,7.2895
2023-05-20T03:40:08.688Z,7.3564
2023-05-20T03:41:11.420Z,7.4201
2023-05-20T03:42:13.564Z,7.4959
2023-05-20T03:43:15.348Z,7.5702
2023-05-20T03:45:18.839Z,7.8162
2023-05-20T03:46:20.299Z,7.7857
2023-05-20T03:47:21.733Z,7.6523
2023-05-20T03:48:23.238Z,7.3580
2023-05-20T03:49:25.390Z,7.2469
2023-05-20T03:50:27.496Z,7.2762
2023-05-20T03:51:29.593Z,7.4307
2023-05-20T03:52:31.037Z,7.4598
2023-05-20T03:53:33.051Z,7.4419
2023-05-20T03:54:35.147Z,7.3812
2023-05-20T03:55:36.807Z,7.5174
2023-05-20T03:56:39.419Z,7.4455
2023-05-20T03:57:41.077Z,7.3900
2023-05-20T03:58:43.196Z,7.5182
2023-05-20T03:59:45.259Z,7.5972
2023-05-20T04:00:48.572Z,7.6952
2023-05-20T04:02:49.472Z,7.5681
2023-05-20T04:04:52.765Z,7.5379
2023-05-20T04:06:55.478Z,7.6372
2023-05-20T04:07:56.930Z,7.5642
2023-05-20T04:08:58.394Z,7.4863
2023-05-20T04:09:59.819Z,7.4454
2023-05-20T04:11:01.885Z,7.4959
2023-05-20T04:12:03.984Z,7.6396
2023-05-20T04:13:07.222Z,7.8076
2023-05-20T04:14:05.886Z,7.7957
2023-05-20T04:15:08.060Z,7.8934
2023-05-20T04:16:10.683Z,7.7816
2023-05-20T04:17:12.809Z,7.4212
2023-05-20T04:18:14.354Z,7.3793
2023-05-20T04:19:16.893Z,7.4108
2023-05-20T04:20:19.022Z,7.3789
2023-05-20T04:21:21.112Z,7.3029
2023-05-20T04:22:22.558Z,7.3184
2023-05-20T04:24:25.981Z,7.4181
2023-05-20T04:25:27.510Z,7.4597
2023-05-20T04:26:29.268Z,7.5993
2023-05-20T04:27:31.371Z,7.7712
2023-05-20T04:28:34.310Z,7.8578
2023-05-20T04:35:43.503Z,7.8928
2023-05-20T04:36:45.610Z,7.9496
2023-05-20T04:37:47.855Z,8.1117
2023-05-20T04:38:49.281Z,8.2400
2023-05-20T04:39:51.345Z,8.3032
2023-05-20T04:40:53.477Z,8.3600
2023-05-20T04:41:54.945Z,8.4527
2023-05-20T04:42:57.078Z,8.5558
2023-05-20T04:43:59.238Z,8.6269
2023-05-20T04:45:01.603Z,8.7095
2023-05-20T04:46:03.851Z,8.8365
2023-05-20T04:47:05.299Z,8.8914
2023-05-20T04:48:07.462Z,8.9460
2023-05-20T04:49:08.916Z,9.0147
2023-05-20T04:50:10.371Z,9.0557
2023-05-20T04:51:12.591Z,9.0819
2023-05-20T04:52:15.281Z,9.1923
2023-05-20T04:53:17.386Z,9.2414
2023-05-20T04:54:19.083Z,9.2521
2023-05-20T04:56:22.477Z,9.3287
2023-05-20T04:57:24.545Z,9.4508
2023-05-20T04:59:28.391Z,9.6389
2023-05-20T05:00:30.791Z,9.7548
2023-05-20T05:01:32.786Z,9.8216
2023-05-20T05:03:36.705Z,9.9069
2023-05-20T05:04:38.440Z,9.8899
2023-05-20T05:05:41.536Z,9.9401
2023-05-20T05:06:43.207Z,9.8901
2023-05-20T05:08:46.885Z,9.9183
2023-05-20T05:09:49.274Z,9.9409
2023-05-20T05:11:54.019Z,10.0982
2023-05-20T05:20:05.026Z,10.4501
2023-05-20T05:21:07.199Z,10.4885
2023-05-20T05:22:09.306Z,10.5576
2023-05-20T05:23:11.000Z,10.5882
2023-05-20T05:24:12.648Z,10.5835
2023-05-20T05:25:14.167Z,10.6443
2023-05-20T05:26:16.792Z,10.6420
2023-05-20T05:28:18.314Z,10.6483
2023-05-20T05:29:19.853Z,10.6707
2023-05-20T05:30:21.316Z,10.7190
2023-05-20T05:32:25.708Z,10.8686
2023-05-20T05:33:28.037Z,10.8712
2023-05-20T05:36:34.981Z,11.0148
2023-05-20T05:37:37.179Z,11.1121
2023-05-20T05:38:39.382Z,11.0696
2023-05-20T05:39:42.008Z,11.0137
2023-05-20T05:40:43.621Z,11.0100
2023-05-20T05:41:45.931Z,11.1147
2023-05-20T05:42:47.514Z,11.0243
2023-05-20T05:43:49.305Z,10.9728
2023-05-20T05:44:51.491Z,11.1581
2023-05-20T05:45:54.055Z,11.2351
2023-05-20T05:46:54.335Z,11.2145
2023-05-20T05:47:55.835Z,11.3225
2023-05-20T05:48:57.900Z,11.5486
2023-05-20T05:50:00.470Z,11.6043
2023-05-20T05:51:02.813Z,11.5897
2023-05-20T05:52:04.292Z,11.3938
2023-05-20T05:53:05.776Z,11.4455
2023-05-20T05:55:10.402Z,11.3956
2023-05-20T05:56:12.728Z,11.3448
2023-05-20T05:57:13.297Z,11.4280
2023-05-20T05:58:14.947Z,11.4245
2023-05-20T05:59:16.431Z,11.4696
2023-05-20T06:00:18.868Z,11.4288
2023-05-20T06:01:20.603Z,11.3685
2023-05-20T06:02:22.294Z,11.2471
2023-05-20T06:03:23.879Z,11.4298
2023-05-20T06:04:26.386Z,11.5733
2023-05-20T06:05:29.849Z,11.4836
2023-05-20T06:06:29.525Z,11.4705
2023-05-20T06:07:31.774Z,11.6238
2023-05-20T06:08:33.282Z,11.6634
2023-05-20T06:09:36.455Z,11.5686
2023-05-20T06:10:38.632Z,11.6064
2023-05-20T06:11:40.761Z,11.6600
2023-05-20T06:12:42.447Z,11.8162
2023-05-20T06:13:44.115Z,11.8782
2023-05-20T06:14:46.283Z,11.8948
2023-05-20T06:15:48.360Z,11.9267
2023-05-20T06:16:51.026Z,11.9255
2023-05-20T06:17:52.562Z,11.9019
2023-05-20T06:18:54.089Z,11.9632
2023-05-20T06:19:56.215Z,12.2919
2023-05-20T06:20:58.566Z,12.2519
2023-05-20T06:22:00.251Z,12.1923
2023-05-20T06:37:30.641Z,12.6424
2023-05-20T06:38:32.759Z,12.5458
2023-05-20T06:39:34.993Z,12.6185
2023-05-20T06:42:39.984Z,12.7205
2023-05-20T06:43:42.263Z,12.8470
2023-05-20T06:44:44.440Z,13.0327
2023-05-20T06:45:45.927Z,13.2161
2023-05-20T06:46:47.648Z,13.3183
2023-05-20T06:47:49.264Z,12.8570
2023-05-20T06:48:50.748Z,12.9131
2023-05-20T06:49:53.028Z,12.5535
2023-05-20T06:51:56.762Z,12.8075
2023-05-20T06:52:58.882Z,12.5795
2023-05-20T06:54:00.409Z,12.4891
2023-05-20T06:55:01.894Z,12.3884
2023-05-20T06:56:04.091Z,12.3446
2023-05-20T06:57:06.245Z,12.0525
2023-05-20T06:58:07.791Z,12.1637
2023-05-20T06:59:09.220Z,12.0965
2023-05-20T07:01:12.766Z,12.2312
2023-05-20T07:02:14.988Z,12.0936
2023-05-20T07:03:16.859Z,12.0216
2023-05-20T07:04:19.204Z,11.9620
2023-05-20T07:06:21.745Z,11.9222
2023-05-20T07:07:24.388Z,11.9326
2023-05-20T07:08:26.230Z,11.9936
2023-05-20T07:09:27.782Z,12.0300
2023-05-20T07:10:29.903Z,12.0176
2023-05-20T07:11:32.010Z,12.0459
2023-05-20T07:12:36.081Z,11.9745
2023-05-20T07:13:36.207Z,12.1427
2023-05-20T07:14:37.761Z,12.2900
2023-05-20T07:15:39.332Z,12.3409
2023-05-20T07:16:41.568Z,12.5328
2023-05-20T07:17:43.178Z,12.6798
2023-05-20T07:18:44.832Z,12.7487
2023-05-20T07:19:46.375Z,12.7477
2023-05-20T07:21:51.044Z,12.9880
2023-05-20T07:22:53.420Z,13.3948
2023-05-20T07:23:54.943Z,13.5547
2023-05-20T07:26:00.148Z,13.4857
2023-05-20T07:27:02.270Z,13.3504
2023-05-20T07:28:04.671Z,13.3171
2023-05-20T07:29:06.212Z,13.3535
2023-05-20T07:30:08.056Z,13.2220
2023-05-20T07:31:10.483Z,13.3672
2023-05-20T07:32:11.985Z,13.3695
2023-05-20T07:33:13.853Z,13.5415
2023-05-20T07:34:15.357Z,13.4996
2023-05-20T07:35:17.552Z,13.5251
2023-05-20T07:36:20.177Z,13.6160
2023-05-20T07:37:22.322Z,13.7949
2023-05-20T07:38:23.886Z,13.9630
2023-05-20T07:39:26.014Z,13.3228
2023-05-20T07:40:27.656Z,13.3840
2023-05-20T07:41:29.214Z,13.5491
2023-05-20T07:43:32.128Z,13.5377
2023-05-20T07:44:34.628Z,13.4075
2023-05-20T07:45:37.224Z,13.5341
2023-05-20T07:49:41.911Z,13.3756
2023-05-20T07:50:43.686Z,13.4764
2023-05-20T07:51:45.686Z,13.4528
2023-05-20T07:52:56.129Z,13.6442
2023-05-20T07:53:49.196Z,13.7231
2023-05-20T07:54:51.602Z,13.6313
2023-05-20T07:55:53.306Z,13.4022
2023-05-20T07:56:55.496Z,13.5326
2023-05-20T07:57:57.037Z,13.3830
2023-05-20T07:58:59.214Z,13.5104
2023-05-20T08:00:01.502Z,13.6955
2023-05-20T08:01:03.102Z,14.0242
2023-05-20T08:03:07.296Z,13.6038
2023-05-20T08:04:09.802Z,14.0050
2023-05-20T08:05:12.073Z,13.7220
2023-05-20T08:07:15.666Z,13.8111
2023-05-20T08:09:17.559Z,14.0173
2023-05-20T08:10:20.028Z,13.9997
2023-05-20T08:11:22.352Z,13.7908
2023-05-20T08:12:23.878Z,13.8362
2023-05-20T08:13:25.589Z,13.9289
2023-05-20T08:14:28.194Z,14.0057
2023-05-20T08:15:30.302Z,14.3505
2023-05-20T08:16:32.547Z,14.2187
2023-05-20T08:17:34.720Z,14.4846
2023-05-20T08:18:36.218Z,14.5160
2023-05-20T08:19:38.333Z,14.3711
2023-05-20T08:20:40.592Z,14.2722
2023-05-20T08:21:42.135Z,14.7268
2023-05-20T08:22:43.662Z,14.3005
2023-05-20T08:23:45.408Z,14.5444
2023-05-20T08:24:47.818Z,14.7891
2023-05-20T08:25:49.905Z,14.8228
2023-05-20T08:26:51.415Z,14.4595
2023-05-20T08:27:53.584Z,14.3551
2023-05-20T08:28:55.098Z,14.4197
2023-05-20T08:29:57.267Z,14.5741
2023-05-20T08:30:58.239Z,14.7718
2023-05-20T08:31:59.717Z,14.5918
2023-05-20T08:33:01.246Z,14.5698
2023-05-20T08:34:02.821Z,14.3365
2023-05-20T08:35:05.054Z,14.3107
2023-05-20T08:36:05.448Z,14.3790
2023-05-20T08:38:08.979Z,14.3850
2023-05-20T08:39:10.504Z,14.2536
2023-05-20T08:40:22.669Z,13.9866
2023-05-20T08:41:13.293Z,14.1938
2023-05-20T08:45:19.201Z,13.6774
2023-05-20T08:46:20.782Z,13.6047
2023-05-20T08:47:23.048Z,13.8094
2023-05-20T08:48:25.225Z,14.0348
2023-05-20T08:49:27.343Z,14.3178
2023-05-20T08:50:28.839Z,14.5112
2023-05-20T08:51:31.026Z,14.3476
2023-05-20T08:52:33.157Z,14.6010
2023-05-20T08:53:35.437Z,14.3676
2023-05-20T08:54:37.147Z,14.4047
2023-05-20T08:55:38.674Z,14.1388
2023-05-20T08:56:40.820Z,13.9748
2023-05-20T08:57:42.959Z,13.8901
2023-05-20T08:58:45.142Z,13.7991
2023-05-20T08:59:47.219Z,13.7091
2023-05-20T09:00:49.558Z,13.7699
2023-05-20T09:01:51.773Z,13.3955
2023-05-20T09:02:53.299Z,13.2359
2023-05-20T09:04:57.306Z,13.1860
2023-05-20T09:05:59.466Z,13.1744
2023-05-20T09:07:00.977Z,13.3139
2023-05-20T09:08:05.107Z,13.5387
2023-05-20T09:09:05.033Z,13.9197
2023-05-20T09:10:07.224Z,14.2101
2023-05-20T09:11:08.721Z,14.2516
2023-05-20T09:13:12.594Z,14.6674
2023-05-20T09:14:14.762Z,15.0261
2023-05-20T09:15:18.458Z,14.8904
2023-05-20T09:16:17.204Z,15.1054
2023-05-20T09:17:18.738Z,14.8126
2023-05-20T09:18:20.822Z,14.7226
2023-05-20T09:19:24.324Z,14.8520
2023-05-20T09:20:23.636Z,14.5777
2023-05-20T09:21:26.052Z,14.1529
2023-05-20T09:22:28.168Z,13.9293
2023-05-20T09:23:30.236Z,14.1932
2023-05-20T09:24:32.870Z,13.9389
2023-05-20T09:25:34.820Z,13.9757
2023-05-20T09:27:38.311Z,13.8241
2023-05-20T09:28:40.006Z,13.9197
2023-05-20T09:30:45.777Z,13.9207
2023-05-20T09:31:45.018Z,13.9457
2023-05-20T09:32:46.679Z,13.9637
2023-05-20T09:34:49.766Z,14.4558
2023-05-20T09:35:51.336Z,14.7650
2023-05-20T09:36:52.910Z,14.8302
2023-05-20T09:37:54.729Z,14.9634
2023-05-20T09:38:56.433Z,15.5777
2023-05-20T09:39:58.732Z,15.9751
2023-05-20T09:41:00.226Z,16.2505
2023-05-20T09:43:03.367Z,17.1947
2023-05-20T09:44:05.237Z,17.2837
2023-05-20T09:45:08.551Z,16.8576
2023-05-20T09:46:07.527Z,16.0995
2023-05-20T09:47:09.943Z,16.7168
2023-05-20T09:48:12.970Z,16.4526
2023-05-20T09:50:14.006Z,16.5113
2023-05-20T09:55:21.844Z,18.3315
2023-05-20T09:56:24.122Z,17.9733
2023-05-20T09:57:25.676Z,17.8923
2023-05-20T09:59:29.552Z,18.2977
2023-05-20T10:12:50.602Z,16.0735
2023-05-20T10:13:52.999Z,16.1725
2023-05-20T10:14:54.582Z,16.1817
2023-05-20T10:15:56.518Z,16.1392
2023-05-20T10:16:59.065Z,15.4848
2023-05-20T10:18:00.652Z,15.3918
2023-05-20T10:20:06.533Z,15.2761
2023-05-20T10:21:06.701Z,15.1614
2023-05-20T10:22:09.198Z,15.2877
2023-05-20T10:23:11.373Z,15.6512
2023-05-20T10:24:13.578Z,15.7417
2023-05-20T10:25:15.131Z,16.1690
2023-05-20T10:26:16.669Z,16.0412
2023-05-20T10:27:18.861Z,16.1420
2023-05-20T10:28:21.216Z,15.0910
2023-05-20T10:29:22.918Z,15.2730
2023-05-20T10:30:24.456Z,15.2506
2023-05-20T10:31:26.612Z,15.3418
2023-05-20T10:32:29.166Z,15.3384
2023-05-20T10:33:31.447Z,15.2651
2023-05-20T10:34:33.043Z,15.3315
2023-05-20T10:35:36.127Z,15.2550
2023-05-20T10:39:38.683Z,15.8204
2023-05-20T10:40:41.164Z,16.0143
2023-05-20T10:41:43.544Z,15.9209
2023-05-20T10:42:48.752Z,16.4064
2023-05-20T10:53:03.947Z,15.3843
2023-05-20T10:54:05.475Z,15.6126
2023-05-20T10:55:06.985Z,15.5428
2023-05-20T10:56:08.519Z,15.9165
2023-05-20T10:57:10.057Z,16.1269
2023-05-20T10:58:12.414Z,16.2771
2023-05-20T10:59:14.538Z,16.4089
2023-05-20T11:00:16.883Z,16.2581
2023-05-20T11:01:19.133Z,15.9913
2023-05-20T11:02:20.718Z,16.2094
2023-05-20T11:04:25.191Z,16.7373
2023-05-20T11:05:27.223Z,16.7115
2023-05-20T11:06:28.774Z,16.7685
2023-05-20T11:08:31.981Z,16.2573
2023-05-20T11:09:34.152Z,16.5771
2023-05-20T11:10:35.887Z,16.0268
2023-05-20T11:11:37.486Z,16.0597
2023-05-20T11:12:39.687Z,16.5375
2023-05-20T11:13:41.757Z,16.5204
2023-05-20T11:14:44.405Z,16.3452
2023-05-20T11:15:45.911Z,16.3449
2023-05-20T11:16:48.206Z,16.8133
2023-05-20T11:17:51.824Z,17.1432
2023-05-20T11:18:50.612Z,17.0413
2023-05-20T11:20:55.052Z,16.9647
2023-05-20T11:21:57.216Z,17.1926
2023-05-20T11:22:59.457Z,17.1899
2023-05-20T11:24:01.025Z,16.8914
2023-05-20T11:25:02.780Z,16.5272
2023-05-20T11:26:04.938Z,16.8965
2023-05-20T11:27:06.488Z,16.9954
2023-05-20T11:28:08.672Z,16.9099
2023-05-20T11:29:10.421Z,16.6818
2023-05-20T11:31:13.757Z,16.5863
2023-05-20T11:32:15.283Z,16.9776
2023-05-20T11:33:17.036Z,16.6241
2023-05-20T11:34:19.223Z,17.0697
2023-05-20T11:35:21.450Z,17.5278
2023-05-20T11:37:23.841Z,18.5698
2023-05-20T11:38:26.050Z,18.8205
2023-05-20T11:39:25.536Z,18.7252
2023-05-20T11:40:32.888Z,18.6565
2023-05-20T11:41:30.356Z,17.9187
2023-05-20T11:42:31.952Z,17.7230
2023-05-20T11:43:34.529Z,18.2645
2023-05-20T11:44:37.172Z,18.1938
2023-05-20T11:45:38.928Z,17.8467
2023-05-20T11:46:44.034Z,18.1329
2023-05-20T11:47:45.903Z,17.9732
2023-05-20T11:49:57.137Z,18.2770
2023-05-20T11:57:07.616Z,18.2211
2023-05-20T12:00:12.986Z,17.1297
2023-05-20T12:02:17.526Z,17.0401
2023-05-20T12:03:19.857Z,17.2933
2023-05-20T12:04:21.514Z,17.0472
2023-05-20T12:05:23.308Z,17.1109
2023-05-20T12:06:25.721Z,17.4725
2023-05-20T12:19:44.879Z,18.0270
2023-05-20T12:20:46.536Z,17.9427
2023-05-20T12:21:48.845Z,17.5804
2023-05-20T12:22:51.260Z,18.2836
2023-05-20T12:23:53.060Z,18.0529
2023-05-20T12:24:55.455Z,17.8240
2023-05-20T12:25:57.912Z,18.2183
2023-05-20T12:26:59.704Z,17.7586
2023-05-20T12:28:02.407Z,18.9884
2023-05-20T12:29:04.616Z,18.9325
2023-05-20T12:30:06.205Z,18.2083
2023-05-20T12:32:10.458Z,18.4941
2023-05-20T12:33:12.044Z,18.3082
2023-05-20T12:35:15.953Z,17.7362
2023-05-20T12:36:17.737Z,17.1520
2023-05-20T12:37:19.345Z,18.1115
2023-05-20T12:38:21.100Z,18.3021
2023-05-20T12:39:22.780Z,18.0641
2023-05-20T12:40:24.419Z,17.7644
2023-05-20T12:41:26.015Z,17.8133
2023-05-20T12:42:28.321Z,18.2228
2023-05-20T12:43:29.915Z,17.9428
2023-05-20T12:44:31.506Z,17.6588
2023-05-20T12:45:33.090Z,16.9530
2023-05-20T12:47:37.703Z,16.7728
2023-05-20T12:48:41.962Z,16.9036
2023-05-20T12:49:42.210Z,16.5506
2023-05-20T12:57:56.790Z,17.6764
2023-05-20T12:58:58.503Z,17.9880
2023-05-20T13:00:00.962Z,18.1620
2023-05-20T13:01:02.612Z,17.5577
2023-05-20T13:02:04.691Z,18.0834
2023-05-20T13:03:07.779Z,17.8407
2023-05-20T13:04:10.304Z,18.0372
2023-05-20T13:05:12.204Z,18.5604
2023-05-20T13:06:13.939Z,18.6855
2023-05-20T13:07:15.678Z,18.5830
2023-05-20T13:08:17.880Z,19.0107
2023-05-20T13:09:19.683Z,18.4592
2023-05-20T13:10:23.286Z,19.2812
2023-05-20T13:20:38.537Z,18.8591
2023-05-20T13:21:40.373Z,18.5048
2023-05-20T13:22:41.985Z,17.9180
2023-05-20T13:23:44.350Z,17.4799
2023-05-20T13:24:46.410Z,17.2798
2023-05-20T13:25:48.175Z,17.6988
2023-05-20T13:26:49.755Z,17.6555
2023-05-20T13:27:51.485Z,17.9179
2023-05-20T13:29:56.592Z,17.6044
2023-05-20T13:30:58.214Z,17.5211
2023-05-20T13:32:01.888Z,17.7431
2023-05-20T13:33:01.095Z,18.3396
2023-05-20T13:34:02.708Z,18.2982
2023-05-20T13:35:04.899Z,18.1360
2023-05-20T13:36:06.552Z,17.8906
2023-05-20T13:37:08.983Z,17.7792
2023-05-20T13:38:11.355Z,18.0181
2023-05-20T13:39:13.800Z,17.8775
2023-05-20T13:42:17.525Z,18.1725
2023-05-20T13:43:19.894Z,18.4379
2023-05-20T13:54:37.652Z,20.3073
2023-05-20T13:55:39.567Z,21.0536
2023-05-20T13:56:41.318Z,20.1293
2023-05-20T13:57:43.386Z,19.8608
2023-05-20T13:58:44.946Z,20.3881
2023-05-20T13:59:46.532Z,20.4988
2023-05-20T14:00:48.270Z,20.0911
2023-05-20T14:01:49.892Z,19.7109
2023-05-20T14:02:51.634Z,18.7031
2023-05-20T14:03:53.287Z,18.6718
2023-05-20T14:13:10.398Z,17.6749
2023-05-20T14:14:12.901Z,18.2657
2023-05-20T14:15:15.153Z,18.6597
2023-05-20T14:16:16.757Z,18.0968
2023-05-20T14:17:18.527Z,18.4953
2023-05-20T14:18:20.484Z,18.0703
2023-05-20T14:19:22.797Z,17.9367
2023-05-20T14:20:24.442Z,18.4986
2023-05-20T14:21:26.231Z,18.2805
2023-05-20T14:22:28.111Z,18.3034
2023-05-20T14:23:29.844Z,18.3112
2023-05-20T14:24:31.437Z,18.0687
2023-05-20T14:25:33.325Z,17.6305
2023-05-20T14:26:35.173Z,17.3012
2023-05-20T14:27:37.732Z,17.7380
2023-05-20T14:28:40.565Z,17.5124
2023-05-20T14:29:42.903Z,17.4375
2023-05-20T14:36:54.473Z,17.5577
2023-05-20T14:37:56.188Z,17.5886
2023-05-20T14:38:58.503Z,17.3218
2023-05-20T14:40:01.011Z,17.2569
2023-05-20T14:41:03.298Z,17.4428
2023-05-20T14:42:05.534Z,17.8717
2023-05-20T14:43:07.250Z,17.5816
2023-05-20T14:44:09.599Z,17.5851
2023-05-20T14:45:11.261Z,17.1670
2023-05-20T14:46:13.003Z,17.0184
2023-05-20T14:48:17.220Z,16.8133
2023-05-20T14:53:25.083Z,17.0323
2023-05-20T14:54:26.662Z,17.3602
2023-05-20T14:55:28.220Z,17.4693
2023-05-20T14:56:29.855Z,17.5412
2023-05-20T14:57:31.881Z,17.1852
2023-05-20T14:58:34.359Z,17.1302
2023-05-20T14:59:35.955Z,17.3224
2023-05-20T15:00:37.753Z,17.4402
2023-05-20T15:01:40.254Z,17.4097
2023-05-20T15:05:45.813Z,17.7376
2023-05-20T15:06:47.666Z,17.5554
2023-05-20T15:08:52.063Z,17.9558
2023-05-20T15:11:54.818Z,17.7544
2023-05-20T15:12:57.277Z,17.6117
2023-05-20T15:13:59.650Z,17.2588
2023-05-20T15:15:01.458Z,17.9184
2023-05-20T15:16:03.032Z,18.2514
2023-05-20T15:17:05.595Z,18.1661
2023-05-20T15:18:06.069Z,17.9250
2023-05-20T15:19:06.221Z,17.6481
2023-05-20T15:20:08.445Z,18.0087
2023-05-20T15:21:10.012Z,18.0442
2023-05-20T15:22:11.586Z,17.4819
2023-05-20T15:23:13.340Z,17.5109
2023-05-20T15:24:15.454Z,17.5628
2023-05-20T15:25:18.385Z,17.7851
2023-05-20T15:36:34.755Z,17.4399
2023-05-20T15:37:36.874Z,17.3705
2023-05-20T15:38:39.073Z,17.5978
2023-05-20T15:39:41.250Z,17.5565
2023-05-20T15:40:42.867Z,17.8864
2023-05-20T15:41:45.156Z,17.5592
2023-05-20T15:42:47.331Z,17.3743
2023-05-20T15:43:48.851Z,17.5153
2023-05-20T15:44:50.418Z,17.8693
2023-05-20T15:45:52.688Z,17.8149
2023-05-20T15:46:54.198Z,17.2826
2023-05-20T15:47:56.457Z,17.1971
2023-05-20T15:48:58.588Z,17.2159
2023-05-20T15:50:00.512Z,17.0146
2023-05-20T15:51:02.062Z,16.9045
2023-05-20T15:52:04.417Z,17.1183
2023-05-20T15:53:06.741Z,17.2142
2023-05-20T15:54:09.356Z,17.0790
2023-05-20T15:55:11.671Z,16.8039
2023-05-20T15:56:13.192Z,16.9738
2023-05-20T15:58:16.115Z,16.9656
2023-05-20T15:59:17.661Z,17.1518
2023-05-20T16:00:19.248Z,17.4381
2023-05-20T16:01:21.755Z,17.3864
2023-05-20T16:02:24.096Z,17.4799
2023-05-20T16:03:26.351Z,17.2587
2023-05-20T16:04:28.058Z,17.2881
2023-05-20T16:05:30.508Z,17.5878
2023-05-20T16:06:32.079Z,17.5276
2023-05-20T16:07:33.671Z,17.4442
2023-05-20T16:09:37.348Z,17.8549
2023-05-20T16:10:39.093Z,17.8328
2023-05-20T16:11:40.680Z,17.6162
2023-05-20T16:12:42.220Z,17.7047
2023-05-20T16:13:43.831Z,18.1291
2023-05-20T16:14:45.393Z,17.8617
2023-05-20T16:15:46.994Z,17.9371
2023-05-20T16:16:48.619Z,18.1299
2023-05-20T16:17:50.212Z,18.3538
2023-05-20T16:18:52.869Z,18.3052
2023-05-20T16:19:55.329Z,17.8946
2023-05-20T16:20:56.882Z,17.7548
2023-05-20T16:23:00.541Z,17.8564
2023-05-20T16:24:02.115Z,17.7785
2023-05-20T16:25:03.741Z,17.8078
2023-05-20T16:26:05.319Z,17.6421
2023-05-20T16:29:11.223Z,17.7459
2023-05-20T16:30:12.801Z,17.7361
2023-05-20T16:31:14.643Z,17.9054
2023-05-20T16:32:16.963Z,17.5238
2023-05-20T16:33:18.543Z,17.6279
2023-05-20T16:34:20.096Z,17.6049
2023-05-20T16:35:21.660Z,17.8453
2023-05-20T16:36:24.168Z,17.9346
2023-05-20T16:37:26.512Z,17.8896
2023-05-20T16:38:28.722Z,17.6743
2023-05-20T16:39:30.267Z,17.6850
2023-05-20T16:41:34.429Z,17.0597
2023-05-20T16:42:36.257Z,17.1613
2023-05-20T16:43:38.563Z,17.3090
2023-05-20T16:45:42.262Z,17.2870
2023-05-20T16:46:44.431Z,17.2627
2023-05-20T16:47:45.992Z,17.2018
2023-05-20T16:48:47.512Z,17.1888
2023-05-20T16:49:49.111Z,17.4344